Time;durP1;ratioP1;P1;durP2;ratioP2;P2;SDS_P1;SDS_P2;PMS_P1;PMS_P2;Temp;Humidity;BMP_temperature;BMP_pressure;BME280_temperature;BME280_humidity;BME280_pressure;Samples;Min_cycle;Max_cycle;Signal;HPM_P1;HPM_P2
2022/02/28 00:00:41;;;;;;;20.73;8.65;;;;;;;0.01;90.57;103100.88;5052112;28;20484;-47
2022/02/28 00:03:09;;;;;;;18.63;9.20;;;;;;;-0.01;91.25;103105.16;5052278;28;20439;-44
2022/02/28 00:05:39;;;;;;;18.42;8.90;;;;;;;-0.02;91.77;103114.63;5051984;28;20045;-47
2022/02/28 00:08:07;;;;;;;22.08;9.70;;;;;;;0.04;91.52;103105.22;5051491;28;20076;-44
2022/02/28 00:10:35;;;;;;;20.13;8.68;;;;;;;0.01;91.28;103113.81;5051597;28;20095;-44
2022/02/28 00:13:03;;;;;;;19.40;8.27;;;;;;;0.01;90.88;103113.81;5051792;28;20480;-43
2022/02/28 00:15:32;;;;;;;19.15;8.20;;;;;;;-0.09;92.07;103112.78;5051869;28;20052;-55
2022/02/28 00:18:00;;;;;;;21.45;8.82;;;;;;;-0.12;92.04;103111.88;5051585;28;20041;-55
2022/02/28 00:20:30;;;;;;;19.48;8.80;;;;;;;-0.13;92.16;103115.31;5051634;28;20045;-55
2022/02/28 00:23:00;;;;;;;17.67;7.22;;;;;;;-0.13;92.43;103112.72;5051642;28;20056;-54
2022/02/28 00:25:28;;;;;;;19.15;8.32;;;;;;;-0.20;93.13;103110.03;5051712;28;20056;-54
2022/02/28 00:27:56;;;;;;;19.83;8.77;;;;;;;-0.24;92.98;103107.38;5051122;28;20496;-55
2022/02/28 00:30:24;;;;;;;18.77;7.85;;;;;;;-0.27;93.31;103109.91;5051511;28;20049;-56
2022/02/28 00:32:53;;;;;;;19.05;8.35;;;;;;;-0.30;92.54;103110.75;5051439;28;20476;-55
2022/02/28 00:35:21;;;;;;;16.08;7.32;;;;;;;-0.29;92.99;103104.69;5051884;28;20467;-54
2022/02/28 00:37:49;;;;;;;17.77;8.20;;;;;;;-0.39;94.24;103103.69;5051908;28;20057;-52
2022/02/28 00:40:18;;;;;;;18.17;8.75;;;;;;;-0.39;94.32;103108.00;5051013;28;20053;-43
2022/02/28 00:42:46;;;;;;;16.98;8.43;;;;;;;-0.43;94.71;103112.25;5051157;28;20106;-45
2022/02/28 00:45:14;;;;;;;18.88;7.72;;;;;;;-0.52;94.57;103107.78;5051547;28;20496;-53
2022/02/28 00:47:43;;;;;;;16.95;7.45;;;;;;;-0.57;95.31;103109.41;5051327;28;20059;-53
2022/02/28 00:50:12;;;;;;;16.77;8.38;;;;;;;-0.58;95.81;103102.50;5050075;28;20080;-54
2022/02/28 00:52:41;;;;;;;19.30;7.60;;;;;;;-0.62;95.55;103103.28;5053330;28;20071;-54
2022/02/28 00:55:12;;;;;;;17.25;7.90;;;;;;;-0.70;96.12;103094.53;5055041;28;20049;-45
2022/02/28 00:57:43;;;;;;;15.73;8.00;;;;;;;-0.72;96.57;103102.25;5054933;28;20053;-47
2022/02/28 01:00:15;;;;;;;16.05;8.07;;;;;;;-0.71;96.75;103100.53;5054901;28;20057;-45
2022/02/28 01:02:44;;;;;;;17.13;7.50;;;;;;;-0.76;97.44;103097.88;5054919;28;20376;-45
2022/02/28 01:05:14;;;;;;;16.77;8.05;;;;;;;-0.70;97.50;103097.97;5054822;28;20045;-45
2022/02/28 01:07:42;;;;;;;17.55;7.43;;;;;;;-0.78;97.40;103094.38;5054866;28;20438;-44
2022/02/28 01:10:13;;;;;;;18.30;7.80;;;;;;;-0.79;97.87;103094.34;5054758;28;20048;-53
2022/02/28 01:12:43;;;;;;;18.92;7.80;;;;;;;-0.90;98.11;103089.88;5054945;28;20044;-43
2022/02/28 01:15:13;;;;;;;16.45;7.38;;;;;;;-0.95;98.34;103101.84;5054592;28;20106;-43
2022/02/28 01:17:42;;;;;;;14.80;7.15;;;;;;;-0.98;99.15;103094.03;5054908;28;20511;-42
2022/02/28 01:20:12;;;;;;;18.17;7.00;;;;;;;-0.93;98.88;103094.97;5054459;28;20059;-53
2022/02/28 01:22:40;;;;;;;13.57;7.13;;;;;;;-0.94;98.63;103090.66;5054515;28;20041;-53
2022/02/28 01:25:11;;;;;;;15.90;6.45;;;;;;;-1.01;99.34;103091.38;5054443;28;20049;-43
2022/02/28 01:27:39;;;;;;;13.25;6.65;;;;;;;-1.07;99.32;103084.38;5054293;28;20056;-44
2022/02/28 01:30:11;;;;;;;13.88;6.80;;;;;;;-1.12;99.20;103083.41;5054602;28;20056;-45
2022/02/28 01:32:39;;;;;;;13.05;5.90;;;;;;;-1.08;99.71;103084.34;5054478;28;20369;-46
2022/02/28 01:35:09;;;;;;;13.20;5.85;;;;;;;-1.02;99.21;103079.31;5054690;28;20052;-45
2022/02/28 01:37:38;;;;;;;13.40;6.07;;;;;;;-1.06;98.53;103078.38;5054458;28;20044;-43
2022/02/28 01:40:08;;;;;;;15.63;5.80;;;;;;;-1.08;98.45;103079.19;5054260;28;20095;-43
2022/02/28 01:42:36;;;;;;;12.30;7.22;;;;;;;-1.12;99.54;103077.38;5054467;28;20049;-54
2022/02/28 01:45:05;;;;;;;12.32;5.45;;;;;;;-1.11;98.83;103081.72;5054232;28;20408;-47
2022/02/28 01:47:36;;;;;;;14.00;5.35;;;;;;;-1.02;98.51;103081.91;5054332;28;20049;-42
2022/02/28 01:50:05;;;;;;;11.27;5.88;;;;;;;-1.06;98.23;103077.53;5054229;28;20048;-43
2022/02/28 01:52:33;;;;;;;13.40;5.68;;;;;;;-1.09;98.15;103073.16;5054083;28;20111;-43
2022/02/28 01:55:01;;;;;;;10.85;5.35;;;;;;;-1.06;98.22;103088.72;5053811;28;20061;-44
2022/02/28 01:57:29;;;;;;;13.32;6.30;;;;;;;-1.06;97.82;103088.72;5053836;28;20500;-49
2022/02/28 01:59:57;;;;;;;13.40;5.60;;;;;;;-1.07;97.64;103091.28;5053910;28;20131;-46
2022/02/28 02:02:25;;;;;;;13.55;5.63;;;;;;;-1.08;97.49;103090.41;5053540;28;20048;-42
2022/02/28 02:04:55;;;;;;;12.35;5.03;;;;;;;-1.06;97.47;103088.72;5053783;28;20065;-52
2022/02/28 02:07:23;;;;;;;13.65;5.50;;;;;;;-1.07;97.60;103099.03;5053593;28;20041;-44
2022/02/28 02:09:51;;;;;;;10.82;5.43;;;;;;;-1.08;97.28;103094.69;5053430;28;20103;-55
2022/02/28 02:12:20;;;;;;;12.27;5.05;;;;;;;-1.09;97.46;103100.69;5053255;28;20102;-53
2022/02/28 02:14:48;;;;;;;10.50;5.20;;;;;;;-1.07;97.50;103091.28;5052416;28;20048;-52
2022/02/28 02:17:16;;;;;;;10.27;5.07;;;;;;;-1.08;97.58;103095.56;5053451;28;20522;-50
2022/02/28 02:19:46;;;;;;;11.88;5.68;;;;;;;-1.07;97.34;103088.69;5053559;28;20110;-54
2022/02/28 02:22:20;;;;;;;11.23;5.78;;;;;;;-1.08;97.15;103094.69;5053795;28;20045;-53
2022/02/28 02:24:48;;;;;;;11.30;5.28;;;;;;;-1.09;97.47;103095.53;5053548;28;20045;-54
2022/02/28 02:27:16;;;;;;;10.98;4.78;;;;;;;-1.10;97.49;103098.97;5053367;28;20069;-54
2022/02/28 02:29:45;;;;;;;12.10;5.40;;;;;;;-1.11;97.54;103092.91;5053038;28;20049;-53
2022/02/28 02:32:15;;;;;;;11.50;4.95;;;;;;;-1.12;97.66;103098.06;5053088;28;20053;-53
2022/02/28 02:34:44;;;;;;;11.93;5.03;;;;;;;-1.12;97.45;103091.16;5053320;28;20457;-55
2022/02/28 02:37:13;;;;;;;10.57;5.03;;;;;;;-1.10;97.33;103086.06;5053231;28;20099;-54
2022/02/28 02:39:44;;;;;;;11.27;5.28;;;;;;;-1.12;97.32;103083.41;5053166;28;20048;-53
2022/02/28 02:42:13;;;;;;;11.65;5.38;;;;;;;-1.15;97.62;103083.38;5053129;28;20049;-55
2022/02/28 02:44:41;;;;;;;10.63;5.30;;;;;;;-1.18;97.34;103074.72;5053167;28;20089;-54
2022/02/28 02:47:09;;;;;;;9.80;4.72;;;;;;;-1.21;97.58;103072.94;5051765;28;20103;-54
2022/02/28 02:49:37;;;;;;;11.18;5.18;;;;;;;-1.25;98.12;103071.97;5052931;28;20056;-54
2022/02/28 02:52:06;;;;;;;11.82;5.05;;;;;;;-1.26;98.24;103082.28;5052892;28;20045;-53
2022/02/28 02:54:35;;;;;;;14.10;5.18;;;;;;;-1.31;98.96;103081.31;5052607;28;20415;-54
2022/02/28 02:57:04;;;;;;;11.15;5.00;;;;;;;-1.26;98.61;103082.28;5052765;28;20044;-54
2022/02/28 02:59:32;;;;;;;12.95;5.18;;;;;;;-1.30;98.98;103083.06;5052677;28;20084;-52
2022/02/28 03:02:00;;;;;;;11.23;5.07;;;;;;;-1.34;99.05;103076.97;5052891;28;20045;-54
2022/02/28 03:04:29;;;;;;;11.07;5.38;;;;;;;-1.43;99.78;103077.66;5052492;28;20041;-55
2022/02/28 03:06:57;;;;;;;8.95;4.65;;;;;;;-1.36;99.16;103070.91;5052461;28;20509;-55
2022/02/28 03:09:25;;;;;;;9.93;4.60;;;;;;;-1.38;98.77;103070.00;5052646;28;20056;-53
2022/02/28 03:11:53;;;;;;;12.68;5.82;;;;;;;-1.47;99.03;103064.63;5052596;28;20467;-52
2022/02/28 03:14:24;;;;;;;11.30;4.85;;;;;;;-1.50;98.91;103067.16;5051775;28;20044;-51
2022/02/28 03:16:52;;;;;;;10.70;4.93;;;;;;;-1.51;98.88;103062.84;5052410;28;20045;-52
2022/02/28 03:19:20;;;;;;;9.80;4.50;;;;;;;-1.51;98.51;103060.25;5052322;28;20033;-52
2022/02/28 03:21:48;;;;;;;11.52;5.15;;;;;;;-1.52;98.22;103055.94;5052345;28;20045;-55
2022/02/28 03:24:16;;;;;;;9.68;4.95;;;;;;;-1.57;99.09;103055.84;5051097;28;20063;-55
2022/02/28 03:26:44;;;;;;;11.98;5.70;;;;;;;-1.60;99.16;103053.19;5052411;28;20073;-54
2022/02/28 03:29:12;;;;;;;10.20;5.20;;;;;;;-1.65;100.00;103053.13;5052289;28;20110;-54
2022/02/28 03:31:42;;;;;;;11.10;5.15;;;;;;;-1.62;99.98;103055.75;5052311;28;20051;-43
2022/02/28 03:34:10;;;;;;;10.48;4.68;;;;;;;-1.67;99.88;103056.50;5052431;28;20495;-56
2022/02/28 03:36:38;;;;;;;10.85;4.72;;;;;;;-1.70;99.92;103058.16;5052006;28;20049;-45
2022/02/28 03:39:06;;;;;;;12.00;5.07;;;;;;;-1.73;100.00;103052.09;5052145;28;20358;-56
2022/02/28 03:41:34;;;;;;;11.40;5.57;;;;;;;-1.75;99.81;103056.31;5052151;28;20318;-56
2022/02/28 03:44:02;;;;;;;12.18;5.10;;;;;;;-1.80;99.55;103057.94;5051953;28;20048;-43
2022/02/28 03:46:32;;;;;;;12.43;4.82;;;;;;;-1.82;100.00;103057.03;5052199;28;20504;-54
2022/02/28 03:49:02;;;;;;;10.40;5.20;;;;;;;-1.81;100.00;103058.75;5052115;28;20434;-54
2022/02/28 03:51:30;;;;;;;10.13;5.38;;;;;;;-1.87;100.00;103065.56;5051785;28;20052;-56
2022/02/28 03:53:58;;;;;;;10.23;5.30;;;;;;;-1.92;100.00;103067.16;5051541;28;20054;-53
2022/02/28 03:56:26;;;;;;;14.30;5.35;;;;;;;-2.00;100.00;103062.63;5051798;28;20045;-45
2022/02/28 03:58:54;;;;;;;11.10;5.50;;;;;;;-1.96;100.00;103059.31;5051734;28;20045;-43
2022/02/28 04:01:22;;;;;;;10.25;5.07;;;;;;;-2.02;100.00;103054.88;5052059;28;20056;-55
2022/02/28 04:03:51;;;;;;;14.05;5.60;;;;;;;-1.98;100.00;103059.25;5051709;28;20048;-57
2022/02/28 04:06:20;;;;;;;10.18;5.10;;;;;;;-1.92;100.00;103054.25;5051907;28;20063;-55
2022/02/28 04:08:48;;;;;;;12.80;5.15;;;;;;;-2.01;100.00;103060.91;5051693;28;20083;-42
2022/02/28 04:11:17;;;;;;;10.70;5.30;;;;;;;-2.05;100.00;103054.81;5051802;28;20447;-53
2022/02/28 04:13:45;;;;;;;11.68;5.13;;;;;;;-2.06;100.00;103064.25;5051763;28;20047;-54
2022/02/28 04:16:13;;;;;;;12.07;5.88;;;;;;;-1.97;100.00;103067.88;5051948;28;20044;-43
2022/02/28 04:18:42;;;;;;;10.18;5.05;;;;;;;-2.11;100.00;103065.00;5051573;28;20056;-43
2022/02/28 04:21:10;;;;;;;11.15;5.22;;;;;;;-2.17;100.00;103059.69;5051452;28;20041;-44
2022/02/28 04:23:39;;;;;;;9.70;4.68;;;;;;;-2.19;100.00;103066.53;5051709;28;20060;-55
2022/02/28 04:26:07;;;;;;;10.95;5.35;;;;;;;-2.22;100.00;103059.59;5053425;28;20876;-55
2022/02/28 04:28:35;;;;;;;12.52;5.53;;;;;;;-2.26;100.00;103050.91;5055442;28;20048;-56
2022/02/28 04:31:03;;;;;;;10.43;5.70;;;;;;;-2.30;100.00;103059.41;5055660;28;20396;-55
2022/02/28 04:33:31;;;;;;;14.73;6.43;;;;;;;-2.31;100.00;103059.38;5053929;28;20053;-52
2022/02/28 04:36:00;;;;;;;13.35;5.75;;;;;;;-2.31;100.00;103046.47;5055461;28;20531;-54
2022/02/28 04:38:28;;;;;;;11.88;5.80;;;;;;;-2.32;100.00;103045.56;5054930;28;20049;-54
2022/02/28 04:40:57;;;;;;;14.23;5.68;;;;;;;-2.34;100.00;103056.72;5055047;28;20052;-54
2022/02/28 04:43:25;;;;;;;10.85;5.45;;;;;;;-2.39;100.00;103059.16;5055275;28;20053;-54
2022/02/28 04:45:53;;;;;;;12.75;5.63;;;;;;;-2.42;100.00;103057.38;5055238;28;20053;-43
2022/02/28 04:48:22;;;;;;;9.98;5.35;;;;;;;-2.46;100.00;103058.13;5054946;28;20049;-54
2022/02/28 04:50:55;;;;;;;11.45;5.68;;;;;;;-2.49;100.00;103055.50;5055144;28;20124;-53
2022/02/28 04:53:23;;;;;;;13.38;5.80;;;;;;;-2.44;100.00;103050.44;5054976;28;20061;-43
2022/02/28 04:55:53;;;;;;;10.00;4.95;;;;;;;-2.43;100.00;103054.78;5055051;28;20491;-55
2022/02/28 04:58:23;;;;;;;11.38;5.78;;;;;;;-2.45;100.00;103051.31;5054742;28;20041;-54
2022/02/28 05:00:51;;;;;;;10.43;5.70;;;;;;;-2.48;100.00;103054.66;5054827;28;20045;-54
2022/02/28 05:03:19;;;;;;;14.52;5.47;;;;;;;-2.46;100.00;103052.13;5055076;28;20448;-55
2022/02/28 05:05:49;;;;;;;12.95;5.80;;;;;;;-2.47;100.00;103060.69;5055060;28;20498;-55
2022/02/28 05:08:17;;;;;;;9.55;5.38;;;;;;;-2.54;100.00;103051.94;5054853;28;20041;-55
2022/02/28 05:10:45;;;;;;;13.32;5.10;;;;;;;-2.63;100.00;103047.44;5054613;28;20057;-42
2022/02/28 05:13:13;;;;;;;13.85;5.57;;;;;;;-2.73;100.00;103059.22;5054541;28;20049;-54
2022/02/28 05:15:43;;;;;;;13.35;6.13;;;;;;;-2.70;100.00;103054.97;5054369;28;20037;-43
2022/02/28 05:18:11;;;;;;;13.90;5.05;;;;;;;-2.70;100.00;103045.50;5054482;28;20045;-43
2022/02/28 05:20:39;;;;;;;12.90;5.18;;;;;;;-2.69;100.00;103048.97;5054437;28;20047;-54
2022/02/28 05:23:07;;;;;;;13.88;5.47;;;;;;;-2.66;100.00;103039.59;5054516;28;20067;-42
2022/02/28 05:25:35;;;;;;;11.60;5.53;;;;;;;-2.72;100.00;103040.31;5054594;28;20087;-54
2022/02/28 05:28:23;;;;;;;12.73;5.22;;;;;;;-2.68;100.00;103050.72;5054297;28;20052;-54
2022/02/28 05:30:53;;;;;;;12.20;5.75;;;;;;;-2.70;100.00;103050.66;5053071;28;20051;-43
2022/02/28 05:33:21;;;;;;;12.43;5.57;;;;;;;-2.72;100.00;103048.06;5054640;28;20413;-54
2022/02/28 05:35:50;;;;;;;12.35;5.68;;;;;;;-2.74;100.00;103046.25;5054118;28;20036;-45
2022/02/28 05:38:18;;;;;;;12.82;6.15;;;;;;;-2.72;100.00;103044.63;5053503;28;20081;-43
2022/02/28 05:40:46;;;;;;;11.38;5.20;;;;;;;-2.80;100.00;103057.28;5054004;28;20049;-44
2022/02/28 05:43:14;;;;;;;11.70;5.45;;;;;;;-2.77;100.00;103053.94;5054188;28;20060;-55
2022/02/28 05:45:43;;;;;;;10.77;5.18;;;;;;;-2.76;100.00;103061.69;5053922;28;20123;-42
2022/02/28 05:48:12;;;;;;;12.43;5.35;;;;;;;-2.82;100.00;103052.94;5053906;28;20041;-43
2022/02/28 05:50:41;;;;;;;10.77;5.38;;;;;;;-2.82;100.00;103058.06;5053805;28;20049;-45
2022/02/28 05:53:09;;;;;;;13.85;5.93;;;;;;;-2.80;100.00;103061.59;5053761;28;20058;-42
2022/02/28 05:55:38;;;;;;;12.63;4.82;;;;;;;-2.82;100.00;103055.50;5053738;28;20049;-43
2022/02/28 05:58:06;;;;;;;12.75;5.30;;;;;;;-2.85;100.00;103065.72;5053793;28;20053;-43
2022/02/28 06:00:34;;;;;;;11.88;5.60;;;;;;;-2.80;100.00;103066.72;5053586;28;20048;-44
2022/02/28 06:03:03;;;;;;;11.13;5.03;;;;;;;-2.88;100.00;103063.94;5053449;28;20047;-56
2022/02/28 06:05:32;;;;;;;11.88;6.13;;;;;;;-2.89;100.00;103068.25;5053604;28;20048;-54
2022/02/28 06:08:00;;;;;;;11.30;5.40;;;;;;;-2.89;100.00;103070.81;5053770;28;20049;-43
2022/02/28 06:10:28;;;;;;;11.52;5.45;;;;;;;-2.94;100.00;103067.25;5052127;28;20057;-42
2022/02/28 06:12:57;;;;;;;10.60;5.60;;;;;;;-2.99;100.00;103070.53;5052125;28;20053;-44
2022/02/28 06:15:30;;;;;;;12.82;5.32;;;;;;;-2.97;100.00;103068.84;5052187;28;20057;-54
2022/02/28 06:17:59;;;;;;;12.50;5.47;;;;;;;-3.01;100.00;103072.16;5052179;28;20060;-54
2022/02/28 06:20:28;;;;;;;14.27;6.05;;;;;;;-2.98;100.00;103072.28;5053308;28;20098;-44
2022/02/28 06:22:57;;;;;;;9.40;5.15;;;;;;;-2.96;100.00;103081.78;5052158;28;20619;-55
2022/02/28 06:25:25;;;;;;;11.60;5.38;;;;;;;-2.98;100.00;103077.44;5053446;28;20052;-43
2022/02/28 06:27:53;;;;;;;11.32;5.05;;;;;;;-2.91;100.00;103075.03;5053146;28;20045;-55
2022/02/28 06:30:22;;;;;;;11.40;5.60;;;;;;;-2.93;100.00;103076.72;5053398;28;20114;-43
2022/02/28 06:32:50;;;;;;;10.60;5.82;;;;;;;-2.96;100.00;103084.38;5053382;28;20049;-43
2022/02/28 06:35:18;;;;;;;16.10;6.53;;;;;;;-3.02;100.00;103085.91;5053065;28;20091;-54
2022/02/28 06:37:47;;;;;;;11.38;5.75;;;;;;;-3.10;100.00;103077.97;5053158;28;20057;-54
2022/02/28 06:40:16;;;;;;;10.77;5.80;;;;;;;-3.06;100.00;103077.22;5052859;28;20391;-42
2022/02/28 06:42:45;;;;;;;11.13;5.28;;;;;;;-3.10;100.00;103080.53;5053084;28;20064;-54
2022/02/28 06:45:13;;;;;;;13.30;5.90;;;;;;;-3.12;100.00;103083.06;5052883;28;20053;-45
2022/02/28 06:47:41;;;;;;;13.23;5.55;;;;;;;-3.12;100.00;103085.63;5053039;28;20507;-42
2022/02/28 06:50:11;;;;;;;13.20;6.05;;;;;;;-3.03;100.00;103085.00;5052158;28;20546;-43
2022/02/28 06:52:40;;;;;;;12.63;5.30;;;;;;;-3.10;100.00;103090.81;5052593;28;20480;-42
2022/02/28 06:55:09;;;;;;;11.75;5.65;;;;;;;-3.07;100.00;103094.38;5052522;28;20047;-43
2022/02/28 06:57:39;;;;;;;12.60;6.07;;;;;;;-3.01;100.00;103092.78;5052843;28;20511;-43
2022/02/28 07:00:08;;;;;;;12.82;5.50;;;;;;;-2.96;100.00;103086.94;5052547;28;20557;-54
2022/02/28 07:02:36;;;;;;;13.75;5.78;;;;;;;-3.01;100.00;103093.66;5052613;28;20047;-53
2022/02/28 07:05:05;;;;;;;11.35;5.60;;;;;;;-2.96;100.00;103099.81;5052364;28;20080;-42
2022/02/28 07:07:33;;;;;;;14.30;6.05;;;;;;;-2.96;100.00;103101.50;5052363;28;20053;-54
2022/02/28 07:10:02;;;;;;;14.65;6.78;;;;;;;-2.87;100.00;103098.31;5052324;28;20454;-54
2022/02/28 07:12:30;;;;;;;13.25;6.40;;;;;;;-2.89;100.00;103095.69;5052402;28;20052;-51
2022/02/28 07:15:01;;;;;;;15.73;6.72;;;;;;;-2.89;100.00;103093.09;5052582;28;20056;-55
2022/02/28 07:17:29;;;;;;;12.70;6.45;;;;;;;-2.90;100.00;103086.22;5052567;28;20052;-43
2022/02/28 07:19:57;;;;;;;14.93;6.78;;;;;;;-2.86;100.00;103093.22;5052345;28;20041;-42
2022/02/28 07:22:25;;;;;;;13.77;6.35;;;;;;;-2.81;100.00;103090.75;5052381;28;20045;-43
2022/02/28 07:24:53;;;;;;;13.23;5.97;;;;;;;-2.60;100.00;103096.47;5052160;28;20447;-54
2022/02/28 07:27:21;;;;;;;14.52;6.35;;;;;;;-2.43;100.00;103086.56;5052090;28;20052;-53
2022/02/28 07:29:50;;;;;;;15.93;6.47;;;;;;;-2.24;100.00;103099.91;5052068;28;20087;-55
2022/02/28 07:32:19;;;;;;;13.85;6.80;;;;;;;-1.94;100.00;103094.59;5051630;28;20094;-54
2022/02/28 07:34:47;;;;;;;13.85;7.18;;;;;;;-1.55;100.00;103096.34;5051840;28;20048;-55
2022/02/28 07:37:18;;;;;;;14.70;7.22;;;;;;;-1.05;100.00;103097.31;5051750;28;20140;-43
2022/02/28 07:39:46;;;;;;;13.27;6.65;;;;;;;-0.60;100.00;103101.63;5052007;28;20049;-42
2022/02/28 07:42:19;;;;;;;14.27;7.00;;;;;;;-0.14;98.74;103100.63;5051742;28;20051;-55
2022/02/28 07:44:49;;;;;;;12.13;5.78;;;;;;;0.42;96.58;103108.34;5052068;28;20103;-42
2022/02/28 07:47:17;;;;;;;12.88;6.53;;;;;;;0.77;94.24;103107.94;5051969;28;20052;-42
2022/02/28 07:49:46;;;;;;;15.98;6.38;;;;;;;1.13;93.34;103106.63;5052005;28;20052;-56
2022/02/28 07:52:14;;;;;;;15.82;6.43;;;;;;;1.35;91.77;103112.03;5051907;28;20099;-55
2022/02/28 07:54:43;;;;;;;14.07;6.43;;;;;;;1.67;90.10;103108.84;5051910;28;20064;-55
2022/02/28 07:57:11;;;;;;;11.60;5.78;;;;;;;2.02;89.23;103113.44;5051815;28;20433;-42
2022/02/28 07:59:40;;;;;;;13.48;6.20;;;;;;;2.28;88.30;103112.75;5050637;28;20072;-42
2022/02/28 08:02:09;;;;;;;12.88;6.70;;;;;;;2.66;86.09;103119.88;5053916;28;20411;-55
2022/02/28 08:04:38;;;;;;;13.63;6.85;;;;;;;2.70;85.40;103119.88;5052269;28;20439;-42
2022/02/28 08:07:07;;;;;;;11.23;6.05;;;;;;;2.95;85.16;103100.91;5053587;28;20400;-55
2022/02/28 08:09:36;;;;;;;11.02;5.95;;;;;;;3.20;83.59;103113.09;5056079;28;20106;-55
2022/02/28 08:12:05;;;;;;;15.27;6.65;;;;;;;3.43;83.35;103114.00;5052507;28;20053;-43
2022/02/28 08:14:33;;;;;;;13.50;6.68;;;;;;;3.50;83.17;103116.59;5052998;28;20068;-43
2022/02/28 08:17:01;;;;;;;13.25;6.43;;;;;;;3.50;81.33;103116.59;5056020;28;20053;-42
2022/02/28 08:19:29;;;;;;;13.05;6.75;;;;;;;3.84;81.33;103106.19;5056050;28;20141;-43
2022/02/28 08:21:57;;;;;;;13.05;6.60;;;;;;;3.96;81.15;103105.31;5055692;28;20041;-42
2022/02/28 08:24:27;;;;;;;11.13;5.78;;;;;;;4.03;79.61;103104.44;5052905;28;20098;-44
2022/02/28 08:26:55;;;;;;;10.45;6.28;;;;;;;3.86;78.60;103111.41;5051818;28;20557;-42
2022/02/28 08:29:23;;;;;;;12.70;6.80;;;;;;;4.30;77.77;103109.59;5054374;28;20048;-55
2022/02/28 08:31:51;;;;;;;10.25;5.95;;;;;;;4.47;79.07;103115.63;5055580;28;20111;-54
2022/02/28 08:34:19;;;;;;;12.18;6.80;;;;;;;4.69;77.74;103118.13;5054609;28;20049;-48
2022/02/28 08:36:47;;;;;;;11.40;5.78;;;;;;;4.70;75.13;103114.66;5055541;28;20049;-55
2022/02/28 08:39:15;;;;;;;11.25;6.22;;;;;;;4.83;75.72;103121.56;5055499;28;20045;-54
2022/02/28 08:41:44;;;;;;;14.15;6.93;;;;;;;5.22;73.83;103113.50;5055182;28;20091;-56
2022/02/28 08:44:13;;;;;;;11.05;5.53;;;;;;;5.46;70.54;103116.84;5053893;28;20049;-55
2022/02/28 08:46:41;;;;;;;12.35;5.72;;;;;;;5.16;69.57;103116.19;5051072;28;20052;-56
2022/02/28 08:49:11;;;;;;;11.35;6.20;;;;;;;5.29;69.84;103115.22;5052971;28;20384;-54
2022/02/28 08:51:41;;;;;;;12.32;6.63;;;;;;;5.21;70.61;103120.50;5055156;28;20041;-55
2022/02/28 08:54:09;;;;;;;12.32;6.75;;;;;;;5.18;69.41;103117.03;5053821;28;20087;-43
2022/02/28 08:56:37;;;;;;;11.38;5.85;;;;;;;5.36;67.77;103106.47;5055186;28;20045;-44
2022/02/28 08:59:06;;;;;;;11.80;6.55;;;;;;;5.36;68.09;103105.63;5055313;28;20479;-43
2022/02/28 09:01:34;;;;;;;12.02;6.35;;;;;;;5.65;68.06;103104.53;5055195;28;20075;-56
2022/02/28 09:04:03;;;;;;;11.65;6.20;;;;;;;6.16;67.65;103104.94;5055206;28;20056;-43
2022/02/28 09:06:31;;;;;;;11.13;6.07;;;;;;;6.07;64.42;103099.81;5054862;28;20044;-56
2022/02/28 09:08:59;;;;;;;11.68;5.32;;;;;;;5.94;64.48;103101.63;5051328;28;20052;-55
2022/02/28 09:11:28;;;;;;;13.07;6.13;;;;;;;5.90;64.58;103100.81;5052654;28;20041;-46
2022/02/28 09:13:56;;;;;;;11.77;5.43;;;;;;;5.80;63.96;103101.78;5051301;28;20462;-56
2022/02/28 09:16:25;;;;;;;11.90;6.13;;;;;;;5.86;64.38;103093.00;5050806;28;20526;-56
2022/02/28 09:18:53;;;;;;;12.18;5.78;;;;;;;6.23;65.41;103093.53;5053574;28;20130;-56
2022/02/28 09:21:22;;;;;;;11.27;5.88;;;;;;;6.35;62.83;103099.50;5054794;28;20095;-56
2022/02/28 09:23:52;;;;;;;10.50;5.60;;;;;;;6.45;63.18;103097.66;5054719;28;20049;-44
2022/02/28 09:26:21;;;;;;;10.75;5.45;;;;;;;6.71;62.51;103098.19;5054985;28;20102;-43
2022/02/28 09:28:49;;;;;;;11.63;5.80;;;;;;;6.99;62.01;103092.59;5054735;28;20365;-44
2022/02/28 09:31:17;;;;;;;10.43;5.47;;;;;;;7.01;60.40;103092.56;5054620;28;20579;-56
2022/02/28 09:33:47;;;;;;;10.52;6.03;;;;;;;7.16;60.20;103094.09;5053865;28;20045;-44
2022/02/28 09:36:15;;;;;;;11.27;5.43;;;;;;;7.03;59.24;103096.03;5050787;28;20106;-44
2022/02/28 09:38:43;;;;;;;11.25;6.03;;;;;;;7.12;60.96;103093.28;5053203;28;20400;-55
2022/02/28 09:41:32;;;;;;;9.48;5.10;;;;;;;6.91;59.45;103095.31;5054344;28;20256;-56
2022/02/28 09:44:02;;;;;;;13.05;5.85;;;;;;;7.34;60.09;103099.06;5054176;28;20049;-44
2022/02/28 09:46:30;;;;;;;11.10;5.43;;;;;;;7.56;59.65;103086.47;5054148;28;20049;-57
2022/02/28 09:49:05;;;;;;;12.10;5.88;;;;;;;7.74;58.57;103090.56;5054362;28;20218;-56
2022/02/28 09:51:33;;;;;;;11.30;5.85;;;;;;;7.85;57.35;103087.72;5054271;28;20522;-55
2022/02/28 09:54:02;;;;;;;10.95;6.10;;;;;;;8.11;56.33;103086.38;5054013;28;20068;-45
2022/02/28 09:56:34;;;;;;;9.32;5.13;;;;;;;8.15;56.35;103082.81;5053958;28;20429;-46
2022/02/28 09:59:03;;;;;;;11.75;5.85;;;;;;;8.43;55.04;103082.28;5052982;28;20057;-56
2022/02/28 10:01:51;;;;;;;9.27;5.15;;;;;;;8.33;54.55;103081.59;5049482;28;20044;-44
2022/02/28 10:04:21;;;;;;;10.85;5.90;;;;;;;8.26;53.83;103078.22;5052754;28;20048;-44
2022/02/28 10:06:49;;;;;;;9.73;5.90;;;;;;;8.38;53.65;103076.25;5050507;28;20044;-56
2022/02/28 10:09:19;;;;;;;11.05;5.68;;;;;;;8.76;53.30;103072.84;5051037;28;20041;-54
2022/02/28 10:11:49;;;;;;;11.35;5.65;;;;;;;8.87;52.86;103069.13;5053750;28;20519;-44
2022/02/28 10:14:18;;;;;;;9.27;5.40;;;;;;;8.75;51.83;103070.25;5053566;28;20045;-43
2022/02/28 10:16:50;;;;;;;10.15;5.50;;;;;;;8.72;51.52;103067.72;5053725;28;20052;-44
2022/02/28 10:19:24;;;;;;;11.10;5.18;;;;;;;9.17;52.09;103070.16;5053545;28;20047;-55
2022/02/28 10:21:54;;;;;;;11.63;6.03;;;;;;;9.18;49.89;103064.03;5050004;28;20041;-44
2022/02/28 10:24:30;;;;;;;12.13;5.72;;;;;;;9.40;50.77;103060.88;5051398;28;20052;-45
2022/02/28 10:26:59;;;;;;;12.15;5.78;;;;;;;9.38;50.65;103067.91;5053495;28;20765;-44
2022/02/28 10:29:29;;;;;;;11.20;5.93;;;;;;;9.74;50.28;103068.75;5053454;28;20090;-44
2022/02/28 10:31:59;;;;;;;13.13;5.57;;;;;;;9.90;49.77;103066.59;5053720;28;20088;-56
2022/02/28 10:34:31;;;;;;;10.77;5.72;;;;;;;9.97;48.05;103067.28;5053664;28;20442;-57
2022/02/28 10:37:04;;;;;;;13.30;5.78;;;;;;;10.26;47.10;103065.63;5052170;28;20069;-57
2022/02/28 10:39:38;;;;;;;10.32;5.50;;;;;;;10.30;47.64;103069.88;5050047;28;20099;-45
2022/02/28 10:42:11;;;;;;;10.55;5.75;;;;;;;10.18;46.47;103068.44;5052122;28;20103;-45
2022/02/28 10:44:40;;;;;;;11.07;6.00;;;;;;;10.27;46.03;103065.56;5053019;28;20498;-55
2022/02/28 10:47:10;;;;;;;9.65;5.70;;;;;;;10.42;45.20;103074.81;5051715;28;20184;-56
2022/02/28 10:49:41;;;;;;;9.90;6.47;;;;;;;10.34;45.50;103070.66;5049145;28;20045;-57
2022/02/28 10:52:11;;;;;;;11.13;6.03;;;;;;;10.56;46.13;103060.41;5051491;28;20076;-44
2022/02/28 10:54:41;;;;;;;10.95;6.07;;;;;;;10.52;43.74;103058.75;5051442;28;20061;-56
2022/02/28 10:57:10;;;;;;;11.45;5.50;;;;;;;10.73;44.83;103060.75;5053073;28;20107;-58
2022/02/28 10:59:43;;;;;;;10.57;5.47;;;;;;;11.50;43.61;103066.16;5053246;28;20049;-55
2022/02/28 11:02:22;;;;;;;12.95;6.13;;;;;;;11.32;43.12;103056.25;5052900;28;20455;-57
2022/02/28 11:05:05;;;;;;;11.15;6.50;;;;;;;11.61;43.05;103041.25;5052849;28;20061;-46
2022/02/28 11:07:41;;;;;;;12.60;6.63;;;;;;;11.47;42.89;103045.19;5052917;28;20037;-48
2022/02/28 11:10:10;;;;;;;11.30;6.47;;;;;;;11.25;43.42;103044.22;5052268;28;20397;-56
2022/02/28 11:12:39;;;;;;;14.15;7.50;;;;;;;11.69;43.63;103056.78;5052367;28;20099;-45
2022/02/28 11:15:09;;;;;;;17.30;8.38;;;;;;;11.89;43.38;103056.94;5052613;28;20476;-46
2022/02/28 11:17:39;;;;;;;13.07;7.55;;;;;;;11.86;42.68;103050.91;5049747;28;20049;-48
2022/02/28 11:20:12;;;;;;;11.82;6.72;;;;;;;12.40;42.16;103041.06;5049006;28;20194;-55
2022/02/28 11:22:40;;;;;;;;;;;;;;;12.52;41.93;103036.16;5053101;28;20565;-56
2022/02/28 11:25:11;;;;;;;10.60;6.38;;;;;;;12.79;40.48;103038.66;5052771;28;19921;-46